Alango, Minnesota
Current Conditions -  °F | °C
As of 2:54 PM on Thursday 23 Oct 2014 (Local Time) from KCQM Reporting Station
Clear Clear  
Wind Chill: 63°   Ceiling: Unl
Heat Index: 63°   Visibility: 10mi
Dew Point: 48°   Wind: 8mph
Humidity: 59%   Direction: 170°S
Pressure: 29.89"   Gusts: NA
Location:  47.7453°N, 92.7634°W
Report Text: KCQM 231954Z AUTO 17007KT 10SM CLR 17/09 A2989 RMK AO2
Loading
Personal Weather Stations






























Interactive Weather Map New forecast layout! Learn more

10-Day Weather Forecast

Advertisements
Track Severe Weather on mobile